Terminal Aerodrome Forecast
Issued by NWS

Home | Current Version | Previous Version | Text Only | Print | Product List | Glossary On
Versions: 1 2 3 4 5 6 7 8 9 10 11 12 13 14 15 16 17 18 19
000
FTUS44 KLIX 230525
TAFHDC
TAF
KHDC 230525Z 2306/2406 30013G21KT P6SM BKN015
     FM231500 32011KT P6SM SCT045
     FM232000 31010KT P6SM FEW200
     FM232300 30006KT P6SM FEW250
     FM240200 00000KT P6SM SKC=

USA.gov is the U.S. government's official web portal to all federal, state and local government web resources and services.